Time;durP1;ratioP1;P1;durP2;ratioP2;P2;SDS_P1;SDS_P2;PMS_P1;PMS_P2;Temp;Humidity;BMP_temperature;BMP_pressure;BME280_temperature;BME280_humidity;BME280_pressure;Samples;Min_cycle;Max_cycle;Signal;HPM_P1;HPM_P2
2023/04/15 00:13:59;;;;;;;;;;;9.90;88.50;;;;;;8393835;28;20076;-72
2023/04/15 00:18:01;;;;;;;;;;;9.90;88.80;;;;;;8393334;28;19924;-72
2023/04/15 00:22:02;;;;;;;;;;;9.90;87.60;;;;;;8389989;28;19932;-72
2023/04/15 00:26:04;;;;;;;;;;;9.90;88.40;;;;;;8432265;27;20385;-72
2023/04/15 00:30:06;;;;;;;;;;;9.80;87.30;;;;;;8390119;28;19935;-72
2023/04/15 00:34:08;;;;;;;;;;;9.70;87.30;;;;;;8387330;28;19925;-72
2023/04/15 00:38:10;;;;;;;;;;;9.60;88.30;;;;;;8388294;28;20396;-72
2023/04/15 00:42:12;;;;;;;;;;;9.50;87.40;;;;;;8389918;28;19932;-72
2023/04/15 00:46:14;;;;;;;;;;;9.50;87.60;;;;;;8386018;28;19928;-72
2023/04/15 00:50:16;;;;;;;;;;;9.40;89.60;;;;;;8392735;28;19946;-72
2023/04/15 00:54:18;;;;;;;;;;;9.30;90.10;;;;;;8387751;28;19929;-72
2023/04/15 00:58:19;;;;;;;;;;;9.20;90.30;;;;;;8398361;28;19971;-72
2023/04/15 01:02:21;;;;;;;;;;;9.10;88.80;;;;;;8384718;28;19975;-72
2023/04/15 01:06:23;;;;;;;;;;;9.10;89.70;;;;;;8386481;28;20495;-72
2023/04/15 01:10:25;;;;;;;;;;;9.00;87.50;;;;;;8391609;28;19924;-72
2023/04/15 01:14:26;;;;;;;;;;;9.00;89.50;;;;;;8396252;28;19931;-72
2023/04/15 01:18:29;;;;;;;;;;;8.90;90.50;;;;;;8384320;28;20403;-72
2023/04/15 01:22:32;;;;;;;;;;;8.90;91.40;;;;;;8383408;28;19973;-72
2023/04/15 01:26:33;;;;;;;;;;;8.80;90.10;;;;;;8382286;28;19930;-72
2023/04/15 01:30:35;;;;;;;;;;;8.80;90.30;;;;;;8396443;28;19932;-72
2023/04/15 01:34:37;;;;;;;;;;;8.80;90.00;;;;;;8399635;28;19924;-72
2023/04/15 01:38:38;;;;;;;;;;;8.70;89.40;;;;;;8384339;28;19933;-72
2023/04/15 01:42:40;;;;;;;;;;;8.70;91.20;;;;;;8415454;27;19928;-72
2023/04/15 01:46:42;;;;;;;;;;;8.70;90.60;;;;;;8383897;28;19963;-72
2023/04/15 01:50:44;;;;;;;;;;;8.60;91.40;;;;;;8395538;28;19931;-72
2023/04/15 01:54:45;;;;;;;;;;;8.60;91.60;;;;;;8385459;28;19933;-72
2023/04/15 01:58:47;;;;;;;;;;;8.60;92.90;;;;;;8381024;28;19947;-72
2023/04/15 02:02:48;;;;;;;;;;;8.60;92.50;;;;;;8397943;28;19958;-72
2023/04/15 02:06:50;;;;;;;;;;;8.60;92.50;;;;;;8420376;28;19958;-72
2023/04/15 02:10:52;;;;;;;;;;;8.60;93.50;;;;;;8394194;28;19924;-72
2023/04/15 02:14:54;;;;;;;;;;;8.50;92.50;;;;;;8383495;28;19939;-71
2023/04/15 02:18:56;;;;;;;;;;;8.50;90.80;;;;;;8423877;27;19935;-72
2023/04/15 02:22:57;;;;;;;;;;;8.40;92.30;;;;;;8390842;28;20291;-72
2023/04/15 02:27:00;;;;;;;;;;;8.40;92.70;;;;;;8376211;28;20332;-72
2023/04/15 02:31:05;;;;;;;;;;;8.40;92.70;;;;;;8387579;28;19925;-72
2023/04/15 02:35:07;;;;;;;;;;;8.40;93.30;;;;;;8386820;28;19924;-72
2023/04/15 02:39:10;;;;;;;;;;;8.30;92.70;;;;;;8385984;28;19924;-72
2023/04/15 02:43:11;;;;;;;;;;;8.30;91.60;;;;;;8386612;28;19931;-72
2023/04/15 02:47:14;;;;;;;;;;;8.30;91.10;;;;;;8390849;28;19925;-72
2023/04/15 02:51:18;;;;;;;;;;;8.20;91.50;;;;;;8386890;28;20451;-72
2023/04/15 02:55:21;;;;;;;;;;;8.10;94.30;;;;;;8382647;28;20160;-72
2023/04/15 02:59:22;;;;;;;;;;;8.00;93.30;;;;;;8376659;28;19952;-72
2023/04/15 03:03:25;;;;;;;;;;;8.00;93.30;;;;;;8383340;28;19924;-72
2023/04/15 03:07:27;;;;;;;;;;;8.00;91.70;;;;;;8388107;28;19943;-72
2023/04/15 03:11:29;;;;;;;;;;;8.00;91.50;;;;;;8385426;28;19928;-71
2023/04/15 03:15:31;;;;;;;;;;;8.00;91.10;;;;;;8383769;28;19932;-71
2023/04/15 03:19:33;;;;;;;;;;;7.90;91.20;;;;;;8388623;28;19978;-72
2023/04/15 03:23:35;;;;;;;;;;;7.80;91.20;;;;;;8383349;28;21399;-72
2023/04/15 03:27:37;;;;;;;;;;;7.80;91.50;;;;;;8396705;28;19975;-72
2023/04/15 03:31:38;;;;;;;;;;;7.70;91.20;;;;;;8387664;28;20364;-72
2023/04/15 03:35:40;;;;;;;;;;;7.70;91.90;;;;;;8377157;28;19932;-72
2023/04/15 03:39:42;;;;;;;;;;;7.60;91.00;;;;;;8383281;28;19931;-72
2023/04/15 03:43:43;;;;;;;;;;;7.60;91.20;;;;;;8384507;28;19931;-72
2023/04/15 03:47:45;;;;;;;;;;;7.60;90.90;;;;;;8385964;28;19930;-72
2023/04/15 03:51:47;;;;;;;;;;;7.50;92.80;;;;;;8394094;28;19971;-72
2023/04/15 03:55:49;;;;;;;;;;;7.50;91.40;;;;;;8382653;28;20374;-72
2023/04/15 03:59:50;;;;;;;;;;;7.50;92.20;;;;;;8376223;28;19933;-72
2023/04/15 04:03:52;;;;;;;;;;;7.50;93.20;;;;;;8389254;28;19924;-72
2023/04/15 04:07:53;;;;;;;;;;;7.40;93.10;;;;;;8381462;28;19969;-72
2023/04/15 04:11:55;;;;;;;;;;;7.40;91.70;;;;;;8395059;28;19924;-72
2023/04/15 04:15:57;;;;;;;;;;;7.40;92.80;;;;;;8389024;28;19932;-72
2023/04/15 04:19:58;;;;;;;;;;;7.30;92.90;;;;;;8384572;28;19973;-72
2023/04/15 04:24:00;;;;;;;;;;;7.30;93.30;;;;;;8419576;27;19932;-72
2023/04/15 04:28:02;;;;;;;;;;;7.20;94.30;;;;;;8386819;28;19993;-72
2023/04/15 04:32:04;;;;;;;;;;;7.20;93.20;;;;;;8389119;28;19925;-72
2023/04/15 04:36:05;;;;;;;;;;;7.20;94.80;;;;;;8397690;28;19924;-71
2023/04/15 04:40:08;;;;;;;;;;;7.10;94.10;;;;;;8387617;28;19926;-72
2023/04/15 04:44:10;;;;;;;;;;;7.10;95.00;;;;;;8397506;28;19931;-72
2023/04/15 04:48:11;;;;;;;;;;;7.10;94.90;;;;;;8377807;28;19928;-72
2023/04/15 04:52:13;;;;;;;;;;;7.10;94.10;;;;;;8381861;28;19963;-72
2023/04/15 04:56:15;;;;;;;;;;;7.10;95.60;;;;;;8388703;28;19935;-72
2023/04/15 05:00:16;;;;;;;;;;;7.10;94.50;;;;;;8385997;28;19979;-72
2023/04/15 05:04:18;;;;;;;;;;;7.10;94.60;;;;;;8381510;28;19936;-72
2023/04/15 05:08:23;;;;;;;;;;;7.10;95.40;;;;;;8378211;28;20664;-72
2023/04/15 05:12:25;;;;;;;;;;;7.10;94.50;;;;;;8383989;28;19932;-72
2023/04/15 05:16:26;;;;;;;;;;;7.10;93.40;;;;;;8378091;28;20044;-72
2023/04/15 05:20:28;;;;;;;;;;;7.10;92.80;;;;;;8393868;28;19930;-72
2023/04/15 05:24:29;;;;;;;;;;;7.20;93.70;;;;;;8385973;28;19931;-72
2023/04/15 05:28:31;;;;;;;;;;;7.20;93.40;;;;;;8384367;28;20372;-72
2023/04/15 05:32:33;;;;;;;;;;;7.30;94.40;;;;;;8386205;28;19948;-71
2023/04/15 05:36:35;;;;;;;;;;;7.30;93.60;;;;;;8386018;28;19924;-72
2023/04/15 05:40:36;;;;;;;;;;;7.30;93.10;;;;;;8392430;28;19972;-71
2023/04/15 05:44:38;;;;;;;;;;;7.30;92.80;;;;;;8401366;28;19935;-72
2023/04/15 05:48:40;;;;;;;;;;;7.30;92.80;;;;;;8392392;28;20333;-72
2023/04/15 05:52:42;;;;;;;;;;;7.30;92.60;;;;;;8380308;28;19924;-72
2023/04/15 05:56:43;;;;;;;;;;;7.20;93.80;;;;;;8379213;28;19925;-72
2023/04/15 06:06:26;;;;;;;;;;;7.20;94.00;;;;;;8377236;28;20003;-71
2023/04/15 06:10:28;;;;;;;;;;;7.20;94.90;;;;;;8382550;28;19975;-72
2023/04/15 06:14:29;;;;;;;;;;;7.20;93.60;;;;;;8391555;28;19924;-72
2023/04/15 06:18:31;;;;;;;;;;;7.30;93.30;;;;;;8379492;28;20399;-72
2023/04/15 06:22:32;;;;;;;;;;;7.30;95.30;;;;;;8378176;28;19931;-72
2023/04/15 06:26:34;;;;;;;;;;;7.30;94.60;;;;;;8386130;28;19956;-72
2023/04/15 06:30:37;;;;;;;;;;;7.40;94.70;;;;;;8389270;28;20347;-72
2023/04/15 06:34:38;;;;;;;;;;;7.60;95.70;;;;;;8389174;28;19930;-71
2023/04/15 06:48:47;;;;;;;;;;;8.10;95.30;;;;;;8374966;28;19978;-71
2023/04/15 06:52:48;;;;;;;;;;;8.40;95.90;;;;;;8411957;28;20010;-72
2023/04/15 06:56:50;;;;;;;;;;;8.60;95.80;;;;;;8371337;28;19968;-71
2023/04/15 07:00:52;;;;;;;;;;;8.80;95.90;;;;;;8405104;28;19928;-71
2023/04/15 07:04:55;;;;;;;;;;;9.00;95.60;;;;;;8383814;28;20327;-71
2023/04/15 07:08:57;;;;;;;;;;;9.10;95.40;;;;;;8392120;28;19939;-71
2023/04/15 07:12:59;;;;;;;;;;;9.20;95.30;;;;;;8418403;28;19972;-71
2023/04/15 07:17:01;;;;;;;;;;;9.20;97.20;;;;;;8417821;28;19950;-71
2023/04/15 07:21:02;;;;;;;;;;;9.30;96.60;;;;;;8385144;28;19928;-71
2023/04/15 07:25:04;;;;;;;;;;;9.40;97.90;;;;;;8382486;28;19924;-71
2023/04/15 07:29:06;;;;;;;;;;;9.60;98.60;;;;;;8399334;28;19960;-71
2023/04/15 07:33:07;;;;;;;;;;;9.80;98.20;;;;;;8396336;28;20023;-72
2023/04/15 07:37:09;;;;;;;;;;;10.10;98.70;;;;;;8393802;28;19925;-71
2023/04/15 07:41:11;;;;;;;;;;;10.30;98.60;;;;;;8393679;28;19974;-72
2023/04/15 07:45:12;;;;;;;;;;;10.60;99.90;;;;;;8394436;28;19971;-71
2023/04/15 07:49:14;;;;;;;;;;;10.80;99.60;;;;;;8397629;28;19924;-71
2023/04/15 07:53:16;;;;;;;;;;;11.10;99.90;;;;;;8392073;28;20478;-71
2023/04/15 07:57:17;;;;;;;;;;;11.30;99.10;;;;;;8391488;28;19924;-72
2023/04/15 08:01:19;;;;;;;;;;;11.50;99.60;;;;;;8389846;28;19931;-71
2023/04/15 08:05:21;;;;;;;;;;;11.60;98.30;;;;;;8392924;28;20376;-71
2023/04/15 08:09:23;;;;;;;;;;;11.80;99.90;;;;;;8391930;28;19932;-71
2023/04/15 08:13:25;;;;;;;;;;;12.00;99.70;;;;;;8391534;28;19925;-71
2023/04/15 08:17:27;;;;;;;;;;;12.10;99.90;;;;;;8394189;28;19999;-71
2023/04/15 08:21:29;;;;;;;;;;;12.40;99.10;;;;;;8385240;28;20384;-71
2023/04/15 08:25:31;;;;;;;;;;;12.50;98.40;;;;;;8388940;28;19928;-71
2023/04/15 08:29:33;;;;;;;;;;;12.70;98.90;;;;;;8383442;28;19955;-71
2023/04/15 08:33:35;;;;;;;;;;;12.80;98.10;;;;;;8396270;28;19931;-72
2023/04/15 08:37:36;;;;;;;;;;;12.90;99.40;;;;;;8391043;28;19967;-71
2023/04/15 08:41:46;;;;;;;;;;;13.00;97.90;;;;;;8392034;28;19943;-72
2023/04/15 08:45:50;;;;;;;;;;;13.20;99.00;;;;;;8389667;28;19968;-72
2023/04/15 08:49:54;;;;;;;;;;;13.40;98.90;;;;;;8386934;28;20618;-72
2023/04/15 08:53:55;;;;;;;;;;;13.50;99.20;;;;;;8394522;28;19930;-72
2023/04/15 08:57:57;;;;;;;;;;;13.70;98.70;;;;;;8382945;28;19924;-72
2023/04/15 09:01:59;;;;;;;;;;;13.70;99.10;;;;;;8381884;28;19980;-72
2023/04/15 09:06:03;;;;;;;;;;;13.80;98.70;;;;;;8387935;28;19985;-72
2023/04/15 09:10:05;;;;;;;;;;;13.80;98.20;;;;;;8392079;28;19924;-72
2023/04/15 09:14:07;;;;;;;;;;;13.70;98.20;;;;;;8385443;28;19928;-72
2023/04/15 09:18:10;;;;;;;;;;;13.70;98.00;;;;;;8387121;28;19975;-72
2023/04/15 09:22:12;;;;;;;;;;;13.80;98.10;;;;;;8379532;28;19951;-72
2023/04/15 09:26:15;;;;;;;;;;;13.80;98.20;;;;;;8388917;28;20020;-72
2023/04/15 09:30:17;;;;;;;;;;;13.70;98.50;;;;;;8385357;28;19975;-72
2023/04/15 09:34:20;;;;;;;;;;;13.60;98.40;;;;;;8381024;28;19968;-72
2023/04/15 09:38:21;;;;;;;;;;;13.60;98.40;;;;;;8377247;28;20350;-71
2023/04/15 09:42:23;;;;;;;;;;;13.80;99.30;;;;;;8410544;27;19991;-72
2023/04/15 09:46:43;;;;;;;;;;;14.00;99.60;;;;;;8381655;28;19935;-72
2023/04/15 09:50:45;;;;;;;;;;;14.40;99.20;;;;;;8388648;28;20288;-72
2023/04/15 09:54:47;;;;;;;;;;;14.60;99.50;;;;;;8376813;28;19924;-72
2023/04/15 09:58:55;;;;;;;;;;;14.90;99.70;;;;;;8374946;28;19934;-72
2023/04/15 10:02:57;;;;;;;;;;;15.00;99.00;;;;;;8383796;28;19935;-72
2023/04/15 10:06:59;;;;;;;;;;;15.00;99.10;;;;;;8385938;28;19941;-72
2023/04/15 10:11:01;;;;;;;;;;;15.10;99.30;;;;;;8382638;28;19936;-72
2023/04/15 10:15:06;;;;;;;;;;;15.20;99.80;;;;;;8399168;28;20354;-72
2023/04/15 10:19:08;;;;;;;;;;;15.40;99.90;;;;;;8408004;28;20352;-72
2023/04/15 10:23:11;;;;;;;;;;;15.90;99.90;;;;;;8394174;28;20047;-72
2023/04/15 10:27:13;;;;;;;;;;;16.30;99.90;;;;;;8380497;28;19932;-72
2023/04/15 10:31:15;;;;;;;;;;;16.60;99.90;;;;;;8385980;28;19947;-72
2023/04/15 10:35:18;;;;;;;;;;;16.90;99.90;;;;;;8389661;28;19978;-70
2023/04/15 10:39:32;;;;;;;;;;;17.10;99.90;;;;;;8390898;28;19929;-70
2023/04/15 10:43:36;;;;;;;;;;;17.20;99.90;;;;;;8392452;28;19924;-70
2023/04/15 10:47:37;;;;;;;;;;;17.50;99.90;;;;;;8384541;28;19935;-70
2023/04/15 10:51:40;;;;;;;;;;;17.80;99.90;;;;;;8392314;28;19931;-70
2023/04/15 10:55:42;;;;;;;;;;;17.90;99.90;;;;;;8391874;28;20361;-70
2023/04/15 10:59:59;;;;;;;;;;;17.90;99.90;;;;;;8394090;28;19929;-70
2023/04/15 11:04:01;;;;;;;;;;;17.80;99.90;;;;;;8389511;28;19932;-70
2023/04/15 11:08:03;;;;;;;;;;;17.60;99.90;;;;;;8398178;28;19928;-70
2023/04/15 11:12:07;;;;;;;;;;;17.90;99.90;;;;;;8384271;28;19931;-71
2023/04/15 11:16:08;;;;;;;;;;;18.20;99.90;;;;;;8381227;28;19975;-70
2023/04/15 11:20:13;;;;;;;;;;;18.20;99.90;;;;;;8378508;28;20414;-70
2023/04/15 11:24:27;;;;;;;;;;;17.80;99.90;;;;;;8366595;28;20014;-70
2023/04/15 11:28:30;;;;;;;;;;;17.90;99.90;;;;;;8377089;28;19924;-70
2023/04/15 11:32:31;;;;;;;;;;;18.50;99.90;;;;;;8379093;28;19929;-72
2023/04/15 11:36:34;;;;;;;;;;;18.50;99.90;;;;;;8387259;28;20331;-72
2023/04/15 11:40:36;;;;;;;;;;;18.50;99.90;;;;;;8373772;28;19972;-72
2023/04/15 11:44:38;;;;;;;;;;;18.60;99.90;;;;;;8354815;28;19933;-70
2023/04/15 11:48:41;;;;;;;;;;;18.80;99.90;;;;;;8359150;28;19929;-70
2023/04/15 11:52:53;;;;;;;;;;;19.10;99.90;;;;;;8371544;28;19976;-70
2023/04/15 11:56:55;;;;;;;;;;;19.10;99.90;;;;;;8354230;28;20336;-70
2023/04/15 12:00:58;;;;;;;;;;;19.00;99.90;;;;;;8387383;28;19924;-70
2023/04/15 12:05:04;;;;;;;;;;;19.00;99.90;;;;;;8353935;28;19932;-70
2023/04/15 12:09:05;;;;;;;;;;;19.60;99.90;;;;;;8390015;28;19929;-70
2023/04/15 12:13:08;;;;;;;;;;;19.70;99.90;;;;;;8355383;28;19976;-70
2023/04/15 12:17:10;;;;;;;;;;;20.10;99.90;;;;;;8353796;28;19925;-70
2023/04/15 12:21:12;;;;;;;;;;;20.40;99.90;;;;;;8356751;28;20044;-70
2023/04/15 12:25:14;;;;;;;;;;;20.40;99.90;;;;;;8354438;28;20303;-70
2023/04/15 12:39:24;;;;;;;;;;;19.20;99.90;;;;;;8361036;28;19923;-70
2023/04/15 12:43:27;;;;;;;;;;;18.80;98.80;;;;;;8367724;28;19928;-70
2023/04/15 12:47:28;;;;;;;;;;;18.50;98.70;;;;;;8360935;28;19925;-70
2023/04/15 12:51:30;;;;;;;;;;;18.00;98.60;;;;;;8360594;28;19929;-70
2023/04/15 12:55:32;;;;;;;;;;;17.80;97.70;;;;;;8359081;28;19971;-70
2023/04/15 12:59:34;;;;;;;;;;;17.40;97.70;;;;;;8374543;28;20027;-70
2023/04/15 13:03:36;;;;;;;;;;;17.30;97.70;;;;;;8361506;28;19972;-70
2023/04/15 13:07:37;;;;;;;;;;;17.30;97.60;;;;;;8359442;28;19928;-70
2023/04/15 13:11:39;;;;;;;;;;;17.10;97.80;;;;;;8384394;28;20062;-70
2023/04/15 13:15:44;;;;;;;;;;;17.10;98.20;;;;;;8398576;27;20011;-70
2023/04/15 13:19:46;;;;;;;;;;;17.10;97.50;;;;;;8357654;28;19936;-70
2023/04/15 13:23:48;;;;;;;;;;;17.10;97.50;;;;;;8358142;28;19929;-70
2023/04/15 13:27:50;;;;;;;;;;;17.10;97.70;;;;;;8356212;28;19924;-70
2023/04/15 13:31:52;;;;;;;;;;;17.10;96.40;;;;;;8370338;28;19967;-70
2023/04/15 13:51:30;;;;;;;;;;;16.40;97.40;;;;;;8358572;28;20300;-70
2023/04/15 13:55:33;;;;;;;;;;;16.40;96.70;;;;;;8359500;28;20331;-70
2023/04/15 13:59:35;;;;;;;;;;;16.30;97.40;;;;;;8398448;28;20342;-70
2023/04/15 14:03:37;;;;;;;;;;;16.30;98.00;;;;;;8361058;28;20023;-70
2023/04/15 14:07:39;;;;;;;;;;;16.50;98.60;;;;;;8355238;28;19925;-70
2023/04/15 14:11:41;;;;;;;;;;;16.60;98.00;;;;;;8356896;28;19933;-70
2023/04/15 14:15:43;;;;;;;;;;;16.40;97.90;;;;;;8358313;28;19928;-70
2023/04/15 14:19:44;;;;;;;;;;;16.10;97.50;;;;;;8357554;28;19987;-70
2023/04/15 14:23:46;;;;;;;;;;;15.80;97.60;;;;;;8357791;28;20202;-70
2023/04/15 14:27:47;;;;;;;;;;;15.40;97.30;;;;;;8380563;27;19986;-70
2023/04/15 14:31:49;;;;;;;;;;;15.10;97.30;;;;;;8368844;28;19931;-70
2023/04/15 14:36:11;;;;;;;;;;;14.90;98.20;;;;;;8364162;28;19924;-70
2023/04/15 14:40:12;;;;;;;;;;;14.90;97.60;;;;;;8364115;28;19948;-70
2023/04/15 14:44:14;;;;;;;;;;;14.70;97.90;;;;;;8361007;28;20035;-70
2023/04/15 14:48:16;;;;;;;;;;;14.40;98.40;;;;;;8398396;27;20019;-70
2023/04/15 14:52:17;;;;;;;;;;;14.30;99.00;;;;;;8369204;28;20028;-70
2023/04/15 14:56:19;;;;;;;;;;;14.50;98.30;;;;;;8397272;28;20009;-70
2023/04/15 15:00:20;;;;;;;;;;;14.80;98.80;;;;;;8367683;28;19939;-70
2023/04/15 15:04:22;;;;;;;;;;;14.90;98.50;;;;;;8357768;28;19933;-70
2023/04/15 15:08:24;;;;;;;;;;;14.90;97.80;;;;;;8378555;28;20428;-70
2023/04/15 15:12:25;;;;;;;;;;;14.70;97.40;;;;;;8382983;28;19932;-70
2023/04/15 15:16:28;;;;;;;;;;;14.50;97.50;;;;;;8356929;28;20296;-70
2023/04/15 15:20:29;;;;;;;;;;;14.30;97.40;;;;;;8389089;28;19929;-70
2023/04/15 15:24:31;;;;;;;;;;;14.00;97.40;;;;;;8357072;28;20340;-70
2023/04/15 15:28:33;;;;;;;;;;;13.90;98.20;;;;;;8359134;28;19932;-70
2023/04/15 15:32:35;;;;;;;;;;;13.90;98.10;;;;;;8359836;28;19936;-70
2023/04/15 15:36:37;;;;;;;;;;;13.70;97.60;;;;;;8354127;28;20486;-70
2023/04/15 15:40:38;;;;;;;;;;;13.70;97.70;;;;;;8354984;28;19929;-70
2023/04/15 15:44:40;;;;;;;;;;;13.60;98.20;;;;;;8357144;28;19932;-70
2023/04/15 15:48:42;;;;;;;;;;;13.60;98.30;;;;;;8355219;28;20027;-71
2023/04/15 15:52:43;;;;;;;;;;;13.40;98.30;;;;;;8358785;28;19964;-70
2023/04/15 15:56:45;;;;;;;;;;;13.30;98.50;;;;;;8373482;28;19933;-70
2023/04/15 16:00:47;;;;;;;;;;;13.20;98.40;;;;;;8361677;28;19972;-70
2023/04/15 16:04:51;;;;;;;;;;;13.10;98.30;;;;;;8362156;28;19925;-70
2023/04/15 16:08:52;;;;;;;;;;;13.10;98.50;;;;;;8363230;28;19970;-70
2023/04/15 16:12:54;;;;;;;;;;;13.10;98.00;;;;;;8367287;28;19931;-70
2023/04/15 16:16:56;;;;;;;;;;;12.90;97.80;;;;;;8359975;28;19924;-70
2023/04/15 16:20:58;;;;;;;;;;;12.90;98.60;;;;;;8361607;28;19932;-72
2023/04/15 16:25:00;;;;;;;;;;;12.80;98.80;;;;;;8361619;28;19975;-72
2023/04/15 16:29:02;;;;;;;;;;;12.80;98.40;;;;;;8365109;28;19928;-72
2023/04/15 16:33:05;;;;;;;;;;;12.70;99.00;;;;;;8361585;28;19928;-72
2023/04/15 16:37:07;;;;;;;;;;;12.60;98.30;;;;;;8361341;28;19929;-72
2023/04/15 16:41:08;;;;;;;;;;;12.50;98.40;;;;;;8364167;28;20448;-72
2023/04/15 16:45:10;;;;;;;;;;;12.60;99.40;;;;;;8360700;28;20316;-72
2023/04/15 16:49:11;;;;;;;;;;;12.60;99.60;;;;;;8391357;28;19925;-72
2023/04/15 16:53:14;;;;;;;;;;;12.60;99.50;;;;;;8364099;28;19924;-72
2023/04/15 16:57:15;;;;;;;;;;;12.50;98.80;;;;;;8374848;28;19935;-72
2023/04/15 17:01:17;;;;;;;;;;;12.40;98.90;;;;;;8378385;28;19927;-72
2023/04/15 17:05:19;;;;;;;;;;;12.30;99.90;;;;;;8357603;28;20281;-72
2023/04/15 17:09:20;;;;;;;;;;;12.20;99.40;;;;;;8361718;28;20416;-72
2023/04/15 17:13:23;;;;;;;;;;;12.30;99.00;;;;;;8364416;28;19975;-72
2023/04/15 17:17:25;;;;;;;;;;;12.30;99.40;;;;;;8357742;28;19932;-72
2023/04/15 17:21:27;;;;;;;;;;;12.30;99.00;;;;;;8357477;28;20371;-72
2023/04/15 17:25:29;;;;;;;;;;;12.20;98.20;;;;;;8363616;28;19948;-72
2023/04/15 17:29:31;;;;;;;;;;;12.00;99.80;;;;;;8358833;28;20455;-72
2023/04/15 17:33:33;;;;;;;;;;;11.90;98.30;;;;;;8362861;28;19924;-72
2023/04/15 17:37:54;;;;;;;;;;;11.90;98.40;;;;;;8361405;28;20380;-72
2023/04/15 17:41:56;;;;;;;;;;;11.70;98.80;;;;;;8358662;28;19931;-72
2023/04/15 17:45:58;;;;;;;;;;;11.60;99.40;;;;;;8362237;28;19946;-73
2023/04/15 17:50:00;;;;;;;;;;;11.50;99.00;;;;;;8364994;28;19936;-72
2023/04/15 17:54:01;;;;;;;;;;;11.40;98.50;;;;;;8396451;28;19929;-72
2023/04/15 17:58:03;;;;;;;;;;;11.40;98.30;;;;;;8356211;28;19979;-72
2023/04/15 18:02:05;;;;;;;;;;;11.40;99.60;;;;;;8357998;28;19933;-72
2023/04/15 18:06:06;;;;;;;;;;;11.30;99.00;;;;;;8363326;28;19932;-72
2023/04/15 18:10:08;;;;;;;;;;;11.20;99.80;;;;;;8358644;28;19928;-72
2023/04/15 18:14:10;;;;;;;;;;;11.10;99.80;;;;;;8360722;28;20299;-72
2023/04/15 18:18:13;;;;;;;;;;;11.10;98.90;;;;;;8359306;28;20284;-72
2023/04/15 18:22:14;;;;;;;;;;;11.00;98.50;;;;;;8357546;28;19967;-72
2023/04/15 18:26:16;;;;;;;;;;;10.90;99.90;;;;;;8359289;28;19932;-72
2023/04/15 18:30:18;;;;;;;;;;;10.70;98.60;;;;;;8359860;28;20267;-72
2023/04/15 18:34:19;;;;;;;;;;;10.70;99.80;;;;;;8359781;28;19935;-72
2023/04/15 18:38:21;;;;;;;;;;;10.70;99.90;;;;;;8356691;28;20020;-71
2023/04/15 18:42:23;;;;;;;;;;;10.80;99.90;;;;;;8358831;28;19924;-72
2023/04/15 18:46:24;;;;;;;;;;;10.80;99.50;;;;;;8355506;28;20569;-72
2023/04/15 18:50:26;;;;;;;;;;;10.80;99.60;;;;;;8357463;28;19932;-72
2023/04/15 18:54:28;;;;;;;;;;;10.80;99.60;;;;;;8357469;28;19924;-72
2023/04/15 18:58:29;;;;;;;;;;;10.70;99.90;;;;;;8347518;28;19936;-72
2023/04/15 19:02:51;;;;;;;;;;;10.60;99.90;;;;;;8358054;28;19925;-72
2023/04/15 19:06:53;;;;;;;;;;;10.60;99.90;;;;;;8357027;28;19929;-72
2023/04/15 19:10:55;;;;;;;;;;;10.60;99.40;;;;;;8389319;28;19937;-72
2023/04/15 19:14:56;;;;;;;;;;;10.50;99.90;;;;;;8360044;28;19929;-72
2023/04/15 19:18:58;;;;;;;;;;;10.50;99.90;;;;;;8385251;28;19975;-71
2023/04/15 19:22:59;;;;;;;;;;;10.50;99.90;;;;;;8358540;28;19928;-72
2023/04/15 19:27:01;;;;;;;;;;;10.40;99.90;;;;;;8354080;28;20381;-72
2023/04/15 19:31:03;;;;;;;;;;;10.40;99.90;;;;;;8354374;28;19967;-72
2023/04/15 19:35:08;;;;;;;;;;;10.30;99.90;;;;;;8355903;28;19929;-72
2023/04/15 19:39:12;;;;;;;;;;;10.30;99.90;;;;;;8364262;28;19995;-72
2023/04/15 19:43:14;;;;;;;;;;;10.20;99.90;;;;;;8378823;28;19946;-72
2023/04/15 19:47:15;;;;;;;;;;;10.20;99.90;;;;;;8364229;28;19931;-72
2023/04/15 19:51:17;;;;;;;;;;;10.20;99.90;;;;;;8363032;28;20307;-72
2023/04/15 19:55:19;;;;;;;;;;;10.10;99.90;;;;;;8363373;28;19925;-72
2023/04/15 19:59:21;;;;;;;;;;;10.00;99.90;;;;;;8362113;28;19929;-73
2023/04/15 20:03:23;;;;;;;;;;;10.00;99.90;;;;;;8364283;28;19968;-72
2023/04/15 20:07:24;;;;;;;;;;;10.00;99.90;;;;;;8374572;28;19932;-72
2023/04/15 20:11:28;;;;;;;;;;;10.00;99.90;;;;;;8363158;28;19939;-72
2023/04/15 20:15:49;;;;;;;;;;;10.00;99.90;;;;;;8364702;28;19924;-72
2023/04/15 20:19:51;;;;;;;;;;;9.90;99.90;;;;;;8392756;28;20359;-72
2023/04/15 20:23:53;;;;;;;;;;;9.90;99.90;;;;;;8368700;28;19932;-72
2023/04/15 20:27:55;;;;;;;;;;;9.90;99.90;;;;;;8359550;28;20407;-72
2023/04/15 20:31:57;;;;;;;;;;;9.90;99.90;;;;;;8363593;28;19929;-72
2023/04/15 20:35:59;;;;;;;;;;;9.90;99.90;;;;;;8365383;28;20398;-72
2023/04/15 20:40:00;;;;;;;;;;;9.90;99.90;;;;;;8361542;28;19929;-72
2023/04/15 20:44:02;;;;;;;;;;;9.90;99.90;;;;;;8362050;28;19974;-72
2023/04/15 20:48:04;;;;;;;;;;;9.90;99.90;;;;;;8356487;28;20138;-72
2023/04/15 20:52:06;;;;;;;;;;;10.00;99.90;;;;;;8356865;28;19931;-72
2023/04/15 20:56:08;;;;;;;;;;;9.90;99.90;;;;;;8361171;28;20592;-72
2023/04/15 21:00:10;;;;;;;;;;;10.00;99.90;;;;;;8358759;28;20004;-72
2023/04/15 21:04:12;;;;;;;;;;;9.90;99.90;;;;;;8385930;28;20299;-72
2023/04/15 21:08:13;;;;;;;;;;;9.90;99.90;;;;;;8386764;28;20380;-72
2023/04/15 21:12:15;;;;;;;;;;;9.80;99.90;;;;;;8389175;28;19929;-72
2023/04/15 21:16:17;;;;;;;;;;;9.80;99.90;;;;;;8395433;28;19939;-72
2023/04/15 21:20:18;;;;;;;;;;;9.70;99.90;;;;;;8392766;28;19935;-72
2023/04/15 21:24:20;;;;;;;;;;;9.70;99.90;;;;;;8391699;28;19930;-72
2023/04/15 21:28:22;;;;;;;;;;;9.70;99.90;;;;;;8404475;28;19947;-72
2023/04/15 21:32:23;;;;;;;;;;;9.70;99.90;;;;;;8382917;28;19924;-72
2023/04/15 21:36:25;;;;;;;;;;;9.80;99.90;;;;;;8382695;28;19987;-72
2023/04/15 21:55:37;;;;;;;;;;;9.70;99.90;;;;;;8398104;28;21709;-72
2023/04/15 21:59:39;;;;;;;;;;;9.60;99.90;;;;;;8383007;28;19979;-72
2023/04/15 22:03:40;;;;;;;;;;;9.60;99.90;;;;;;8389356;28;20023;-72
2023/04/15 22:07:42;;;;;;;;;;;9.50;99.90;;;;;;8385297;28;20372;-72
2023/04/15 22:11:46;;;;;;;;;;;9.50;99.90;;;;;;8392695;28;19925;-72
2023/04/15 22:15:47;;;;;;;;;;;9.50;99.90;;;;;;8390394;28;20303;-72
2023/04/15 22:19:51;;;;;;;;;;;9.50;99.90;;;;;;8411151;28;21335;-72
2023/04/15 22:39:22;;;;;;;;;;;9.60;99.90;;;;;;8386866;28;19989;-72
2023/04/15 22:43:26;;;;;;;;;;;9.60;99.90;;;;;;8386587;28;19924;-72
2023/04/15 22:47:27;;;;;;;;;;;9.60;99.90;;;;;;8429439;28;19935;-72
2023/04/15 22:51:30;;;;;;;;;;;9.60;99.90;;;;;;8383531;28;20384;-72
2023/04/15 22:55:31;;;;;;;;;;;9.50;99.90;;;;;;8386981;28;19967;-72
2023/04/15 22:59:33;;;;;;;;;;;9.50;99.90;;;;;;8380959;28;19925;-72
2023/04/15 23:03:35;;;;;;;;;;;9.50;99.90;;;;;;8380208;28;19924;-72
2023/04/15 23:07:39;;;;;;;;;;;9.50;99.90;;;;;;8381941;28;19925;-72
2023/04/15 23:11:41;;;;;;;;;;;9.50;99.90;;;;;;8391568;28;19928;-72
2023/04/15 23:15:43;;;;;;;;;;;9.50;99.90;;;;;;8386378;28;20288;-72
2023/04/15 23:19:44;;;;;;;;;;;9.50;99.90;;;;;;8385877;28;19929;-72
2023/04/15 23:33:53;;;;;;;;;;;9.40;99.90;;;;;;8381732;28;19924;-72
2023/04/15 23:37:55;;;;;;;;;;;9.50;99.90;;;;;;8389075;28;20371;-72
2023/04/15 23:41:56;;;;;;;;;;;9.50;99.90;;;;;;8391214;28;19931;-72
2023/04/15 23:45:58;;;;;;;;;;;9.40;99.90;;;;;;8379420;28;19928;-72
2023/04/15 23:50:00;;;;;;;;;;;9.50;99.90;;;;;;8385510;28;19943;-72
2023/04/15 23:54:01;;;;;;;;;;;9.50;99.90;;;;;;8385708;28;19931;-72
2023/04/15 23:58:03;;;;;;;;;;;9.50;99.90;;;;;;8377627;28;19931;-72
